sensor_id;sensor_type;location;lat;lon;timestamp;P1;durP1;ratioP1;P2;durP2;ratioP2
40737;SDS011;54759;48.094;-1.628;2022-11-13T00:01:41;1.20;;;1.10;;
40737;SDS011;54759;48.094;-1.628;2022-11-13T00:05:01;1.35;;;1.20;;
40737;SDS011;54759;48.094;-1.628;2022-11-13T00:08:21;1.30;;;0.95;;
40737;SDS011;54759;48.094;-1.628;2022-11-13T00:11:41;2.25;;;0.90;;
40737;SDS011;54759;48.094;-1.628;2022-11-13T00:15:02;1.10;;;1.00;;
40737;SDS011;54759;48.094;-1.628;2022-11-13T00:18:21;1.15;;;1.05;;
40737;SDS011;54759;48.094;-1.628;2022-11-13T00:21:41;1.30;;;1.15;;
40737;SDS011;54759;48.094;-1.628;2022-11-13T00:25:01;1.10;;;1.00;;
40737;SDS011;54759;48.094;-1.628;2022-11-13T00:28:21;1.30;;;1.20;;
40737;SDS011;54759;48.094;-1.628;2022-11-13T00:31:42;1.02;;;0.93;;
40737;SDS011;54759;48.094;-1.628;2022-11-13T00:35:01;1.02;;;0.93;;
40737;SDS011;54759;48.094;-1.628;2022-11-13T00:38:21;1.10;;;1.00;;
40737;SDS011;54759;48.094;-1.628;2022-11-13T00:41:41;1.13;;;1.00;;
40737;SDS011;54759;48.094;-1.628;2022-11-13T00:45:01;1.27;;;1.10;;
40737;SDS011;54759;48.094;-1.628;2022-11-13T00:48:22;2.03;;;1.67;;
40737;SDS011;54759;48.094;-1.628;2022-11-13T00:51:41;1.38;;;1.17;;
40737;SDS011;54759;48.094;-1.628;2022-11-13T00:55:01;1.50;;;1.25;;
40737;SDS011;54759;48.094;-1.628;2022-11-13T00:58:21;1.23;;;1.13;;
40737;SDS011;54759;48.094;-1.628;2022-11-13T01:01:41;1.45;;;1.17;;
40737;SDS011;54759;48.094;-1.628;2022-11-13T01:05:02;1.40;;;1.08;;
40737;SDS011;54759;48.094;-1.628;2022-11-13T01:08:21;1.40;;;1.30;;
40737;SDS011;54759;48.094;-1.628;2022-11-13T01:11:41;1.45;;;1.10;;
40737;SDS011;54759;48.094;-1.628;2022-11-13T01:15:01;1.67;;;1.20;;
40737;SDS011;54759;48.094;-1.628;2022-11-13T01:18:21;1.00;;;0.90;;
40737;SDS011;54759;48.094;-1.628;2022-11-13T01:21:42;1.40;;;1.30;;
40737;SDS011;54759;48.094;-1.628;2022-11-13T01:25:01;1.30;;;1.20;;
40737;SDS011;54759;48.094;-1.628;2022-11-13T01:28:21;1.42;;;1.33;;
40737;SDS011;54759;48.094;-1.628;2022-11-13T01:31:41;1.58;;;1.38;;
40737;SDS011;54759;48.094;-1.628;2022-11-13T01:35:01;1.30;;;1.20;;
40737;SDS011;54759;48.094;-1.628;2022-11-13T01:38:22;1.10;;;1.00;;
40737;SDS011;54759;48.094;-1.628;2022-11-13T01:41:41;1.42;;;1.23;;
40737;SDS011;54759;48.094;-1.628;2022-11-13T01:45:01;1.20;;;1.10;;
40737;SDS011;54759;48.094;-1.628;2022-11-13T01:48:21;1.20;;;1.10;;
40737;SDS011;54759;48.094;-1.628;2022-11-13T01:51:42;1.20;;;1.10;;
40737;SDS011;54759;48.094;-1.628;2022-11-13T01:55:03;1.40;;;1.05;;
40737;SDS011;54759;48.094;-1.628;2022-11-13T01:58:21;1.40;;;1.27;;
40737;SDS011;54759;48.094;-1.628;2022-11-13T02:01:41;1.42;;;1.00;;
40737;SDS011;54759;48.094;-1.628;2022-11-13T02:05:01;1.25;;;1.15;;
40737;SDS011;54759;48.094;-1.628;2022-11-13T02:08:21;1.10;;;0.90;;
40737;SDS011;54759;48.094;-1.628;2022-11-13T02:11:42;1.50;;;1.20;;
40737;SDS011;54759;48.094;-1.628;2022-11-13T02:15:03;1.42;;;1.20;;
40737;SDS011;54759;48.094;-1.628;2022-11-13T02:18:21;1.60;;;1.20;;
40737;SDS011;54759;48.094;-1.628;2022-11-13T02:21:43;1.15;;;1.00;;
40737;SDS011;54759;48.094;-1.628;2022-11-13T02:25:12;1.30;;;1.17;;
40737;SDS011;54759;48.094;-1.628;2022-11-13T02:28:31;1.10;;;1.00;;
40737;SDS011;54759;48.094;-1.628;2022-11-13T02:31:51;1.00;;;0.90;;
40737;SDS011;54759;48.094;-1.628;2022-11-13T02:35:11;1.15;;;1.05;;
40737;SDS011;54759;48.094;-1.628;2022-11-13T02:38:32;1.17;;;1.08;;
40737;SDS011;54759;48.094;-1.628;2022-11-13T02:41:52;1.33;;;1.08;;
40737;SDS011;54759;48.094;-1.628;2022-11-13T02:45:11;1.15;;;1.00;;
40737;SDS011;54759;48.094;-1.628;2022-11-13T02:48:31;1.30;;;1.10;;
40737;SDS011;54759;48.094;-1.628;2022-11-13T02:51:51;1.30;;;1.08;;
40737;SDS011;54759;48.094;-1.628;2022-11-13T02:55:11;1.42;;;1.08;;
40737;SDS011;54759;48.094;-1.628;2022-11-13T02:58:32;1.02;;;0.93;;
40737;SDS011;54759;48.094;-1.628;2022-11-13T03:01:51;1.60;;;0.93;;
40737;SDS011;54759;48.094;-1.628;2022-11-13T03:05:11;1.17;;;1.05;;
40737;SDS011;54759;48.094;-1.628;2022-11-13T03:08:31;1.13;;;1.02;;
40737;SDS011;54759;48.094;-1.628;2022-11-13T03:11:51;1.23;;;1.13;;
40737;SDS011;54759;48.094;-1.628;2022-11-13T03:15:12;0.90;;;0.90;;
40737;SDS011;54759;48.094;-1.628;2022-11-13T03:18:31;1.15;;;0.90;;
40737;SDS011;54759;48.094;-1.628;2022-11-13T03:21:51;1.10;;;1.00;;
40737;SDS011;54759;48.094;-1.628;2022-11-13T03:25:11;0.90;;;0.80;;
40737;SDS011;54759;48.094;-1.628;2022-11-13T03:28:31;1.00;;;0.80;;
40737;SDS011;54759;48.094;-1.628;2022-11-13T03:31:52;1.20;;;0.95;;
40737;SDS011;54759;48.094;-1.628;2022-11-13T03:35:11;1.15;;;1.05;;
40737;SDS011;54759;48.094;-1.628;2022-11-13T03:38:31;1.10;;;1.00;;
40737;SDS011;54759;48.094;-1.628;2022-11-13T03:41:51;1.00;;;0.88;;
40737;SDS011;54759;48.094;-1.628;2022-11-13T03:45:11;1.25;;;1.08;;
40737;SDS011;54759;48.094;-1.628;2022-11-13T03:48:32;1.00;;;0.90;;
40737;SDS011;54759;48.094;-1.628;2022-11-13T03:51:51;0.65;;;0.65;;
40737;SDS011;54759;48.094;-1.628;2022-11-13T03:55:11;1.45;;;1.25;;
40737;SDS011;54759;48.094;-1.628;2022-11-13T03:58:31;1.30;;;1.20;;
40737;SDS011;54759;48.094;-1.628;2022-11-13T04:01:51;1.42;;;1.13;;
40737;SDS011;54759;48.094;-1.628;2022-11-13T04:05:12;1.13;;;0.90;;
40737;SDS011;54759;48.094;-1.628;2022-11-13T04:08:31;1.15;;;1.02;;
40737;SDS011;54759;48.094;-1.628;2022-11-13T04:11:51;1.13;;;1.00;;
40737;SDS011;54759;48.094;-1.628;2022-11-13T04:15:11;1.23;;;0.95;;
40737;SDS011;54759;48.094;-1.628;2022-11-13T04:18:31;1.05;;;0.85;;
40737;SDS011;54759;48.094;-1.628;2022-11-13T04:21:52;1.13;;;1.00;;
40737;SDS011;54759;48.094;-1.628;2022-11-13T04:25:11;1.03;;;0.93;;
40737;SDS011;54759;48.094;-1.628;2022-11-13T04:28:31;1.40;;;1.20;;
40737;SDS011;54759;48.094;-1.628;2022-11-13T04:31:51;1.00;;;0.90;;
40737;SDS011;54759;48.094;-1.628;2022-11-13T04:35:11;0.95;;;0.93;;
40737;SDS011;54759;48.094;-1.628;2022-11-13T04:38:32;1.58;;;1.10;;
40737;SDS011;54759;48.094;-1.628;2022-11-13T04:41:51;1.20;;;1.10;;
40737;SDS011;54759;48.094;-1.628;2022-11-13T04:45:22;1.02;;;0.88;;
40737;SDS011;54759;48.094;-1.628;2022-11-13T04:48:41;1.13;;;1.02;;
40737;SDS011;54759;48.094;-1.628;2022-11-13T04:52:01;1.10;;;0.95;;
40737;SDS011;54759;48.094;-1.628;2022-11-13T04:55:22;0.93;;;0.80;;
40737;SDS011;54759;48.094;-1.628;2022-11-13T04:58:41;1.00;;;0.85;;
40737;SDS011;54759;48.094;-1.628;2022-11-13T05:02:01;0.75;;;0.75;;
40737;SDS011;54759;48.094;-1.628;2022-11-13T05:05:21;1.00;;;0.90;;
40737;SDS011;54759;48.094;-1.628;2022-11-13T05:08:41;1.10;;;1.00;;
40737;SDS011;54759;48.094;-1.628;2022-11-13T05:12:02;1.40;;;1.10;;
40737;SDS011;54759;48.094;-1.628;2022-11-13T05:15:21;1.25;;;1.05;;
40737;SDS011;54759;48.094;-1.628;2022-11-13T05:18:41;1.30;;;0.90;;
40737;SDS011;54759;48.094;-1.628;2022-11-13T05:22:01;1.15;;;1.00;;
40737;SDS011;54759;48.094;-1.628;2022-11-13T05:25:21;1.23;;;0.90;;
40737;SDS011;54759;48.094;-1.628;2022-11-13T05:28:42;1.05;;;0.82;;
40737;SDS011;54759;48.094;-1.628;2022-11-13T05:32:01;0.88;;;0.80;;
40737;SDS011;54759;48.094;-1.628;2022-11-13T05:35:21;1.35;;;1.00;;
40737;SDS011;54759;48.094;-1.628;2022-11-13T05:38:41;1.00;;;0.90;;
40737;SDS011;54759;48.094;-1.628;2022-11-13T05:42:01;1.10;;;0.98;;
40737;SDS011;54759;48.094;-1.628;2022-11-13T05:45:22;1.08;;;0.98;;
40737;SDS011;54759;48.094;-1.628;2022-11-13T05:48:42;1.25;;;1.10;;
40737;SDS011;54759;48.094;-1.628;2022-11-13T05:52:01;1.10;;;1.00;;
40737;SDS011;54759;48.094;-1.628;2022-11-13T05:55:21;1.00;;;0.90;;
40737;SDS011;54759;48.094;-1.628;2022-11-13T05:58:41;1.45;;;1.00;;
40737;SDS011;54759;48.094;-1.628;2022-11-13T06:02:02;0.93;;;0.68;;
40737;SDS011;54759;48.094;-1.628;2022-11-13T06:05:21;0.82;;;0.82;;
40737;SDS011;54759;48.094;-1.628;2022-11-13T06:08:41;1.00;;;0.90;;
40737;SDS011;54759;48.094;-1.628;2022-11-13T06:12:01;0.98;;;0.90;;
40737;SDS011;54759;48.094;-1.628;2022-11-13T06:15:21;0.80;;;0.80;;
40737;SDS011;54759;48.094;-1.628;2022-11-13T06:18:42;1.02;;;0.70;;
40737;SDS011;54759;48.094;-1.628;2022-11-13T06:22:01;1.20;;;1.00;;
40737;SDS011;54759;48.094;-1.628;2022-11-13T06:25:21;0.85;;;0.85;;
40737;SDS011;54759;48.094;-1.628;2022-11-13T06:28:41;1.15;;;0.93;;
40737;SDS011;54759;48.094;-1.628;2022-11-13T06:32:01;0.82;;;0.82;;
40737;SDS011;54759;48.094;-1.628;2022-11-13T06:35:22;1.00;;;0.90;;
40737;SDS011;54759;48.094;-1.628;2022-11-13T06:38:41;1.10;;;0.90;;
40737;SDS011;54759;48.094;-1.628;2022-11-13T06:42:01;0.93;;;0.90;;
40737;SDS011;54759;48.094;-1.628;2022-11-13T06:45:21;0.98;;;0.88;;
40737;SDS011;54759;48.094;-1.628;2022-11-13T06:48:41;1.13;;;0.82;;
40737;SDS011;54759;48.094;-1.628;2022-11-13T06:52:02;1.20;;;0.93;;
40737;SDS011;54759;48.094;-1.628;2022-11-13T06:55:21;1.80;;;0.90;;
40737;SDS011;54759;48.094;-1.628;2022-11-13T06:58:41;1.13;;;0.93;;
40737;SDS011;54759;48.094;-1.628;2022-11-13T07:02:01;1.00;;;0.90;;
40737;SDS011;54759;48.094;-1.628;2022-11-13T07:05:21;0.80;;;0.80;;
40737;SDS011;54759;48.094;-1.628;2022-11-13T07:08:42;1.00;;;0.90;;
40737;SDS011;54759;48.094;-1.628;2022-11-13T07:12:01;0.95;;;0.90;;
40737;SDS011;54759;48.094;-1.628;2022-11-13T07:15:21;1.23;;;0.95;;
40737;SDS011;54759;48.094;-1.628;2022-11-13T07:18:41;0.70;;;0.70;;
40737;SDS011;54759;48.094;-1.628;2022-11-13T07:22:01;0.70;;;0.70;;
40737;SDS011;54759;48.094;-1.628;2022-11-13T07:25:22;0.85;;;0.80;;
40737;SDS011;54759;48.094;-1.628;2022-11-13T07:28:41;0.85;;;0.80;;
40737;SDS011;54759;48.094;-1.628;2022-11-13T07:32:01;1.00;;;0.90;;
40737;SDS011;54759;48.094;-1.628;2022-11-13T07:35:21;1.00;;;0.90;;
40737;SDS011;54759;48.094;-1.628;2022-11-13T07:38:41;0.75;;;0.75;;
40737;SDS011;54759;48.094;-1.628;2022-11-13T07:42:02;1.10;;;0.93;;
40737;SDS011;54759;48.094;-1.628;2022-11-13T07:45:21;0.80;;;0.80;;
40737;SDS011;54759;48.094;-1.628;2022-11-13T07:48:41;1.10;;;1.00;;
40737;SDS011;54759;48.094;-1.628;2022-11-13T07:52:01;0.77;;;0.70;;
40737;SDS011;54759;48.094;-1.628;2022-11-13T07:55:21;0.90;;;0.90;;
40737;SDS011;54759;48.094;-1.628;2022-11-13T07:58:42;0.90;;;0.80;;
40737;SDS011;54759;48.094;-1.628;2022-11-13T08:02:01;0.80;;;0.80;;
40737;SDS011;54759;48.094;-1.628;2022-11-13T08:05:21;0.80;;;0.80;;
40737;SDS011;54759;48.094;-1.628;2022-11-13T08:08:41;0.93;;;0.90;;
40737;SDS011;54759;48.094;-1.628;2022-11-13T08:12:01;0.80;;;0.77;;
40737;SDS011;54759;48.094;-1.628;2022-11-13T08:15:22;0.80;;;0.80;;
40737;SDS011;54759;48.094;-1.628;2022-11-13T08:18:41;0.80;;;0.80;;
40737;SDS011;54759;48.094;-1.628;2022-11-13T08:22:01;0.75;;;0.70;;
40737;SDS011;54759;48.094;-1.628;2022-11-13T08:25:21;1.05;;;0.85;;
40737;SDS011;54759;48.094;-1.628;2022-11-13T08:28:41;0.80;;;0.80;;
40737;SDS011;54759;48.094;-1.628;2022-11-13T08:32:02;1.02;;;0.80;;
40737;SDS011;54759;48.094;-1.628;2022-11-13T08:35:21;1.08;;;0.98;;
40737;SDS011;54759;48.094;-1.628;2022-11-13T08:38:41;1.05;;;0.80;;
40737;SDS011;54759;48.094;-1.628;2022-11-13T08:42:02;0.77;;;0.70;;
40737;SDS011;54759;48.094;-1.628;2022-11-13T08:45:21;1.20;;;1.00;;
40737;SDS011;54759;48.094;-1.628;2022-11-13T08:48:42;0.80;;;0.80;;
40737;SDS011;54759;48.094;-1.628;2022-11-13T08:52:01;0.80;;;0.77;;
40737;SDS011;54759;48.094;-1.628;2022-11-13T08:55:21;0.75;;;0.73;;
40737;SDS011;54759;48.094;-1.628;2022-11-13T08:58:41;1.10;;;0.90;;
40737;SDS011;54759;48.094;-1.628;2022-11-13T09:02:01;1.00;;;0.85;;
40737;SDS011;54759;48.094;-1.628;2022-11-13T09:05:22;1.20;;;1.10;;
40737;SDS011;54759;48.094;-1.628;2022-11-13T09:08:41;1.20;;;1.10;;
40737;SDS011;54759;48.094;-1.628;2022-11-13T09:12:01;1.08;;;1.00;;
40737;SDS011;54759;48.094;-1.628;2022-11-13T09:15:21;1.00;;;0.90;;
40737;SDS011;54759;48.094;-1.628;2022-11-13T09:18:41;1.10;;;0.93;;
40737;SDS011;54759;48.094;-1.628;2022-11-13T09:22:02;1.10;;;1.00;;
40737;SDS011;54759;48.094;-1.628;2022-11-13T09:25:21;0.73;;;0.68;;
40737;SDS011;54759;48.094;-1.628;2022-11-13T09:28:41;1.00;;;0.90;;
40737;SDS011;54759;48.094;-1.628;2022-11-13T09:32:01;1.05;;;0.98;;
40737;SDS011;54759;48.094;-1.628;2022-11-13T09:35:22;0.98;;;0.90;;
40737;SDS011;54759;48.094;-1.628;2022-11-13T09:38:52;0.80;;;0.75;;
40737;SDS011;54759;48.094;-1.628;2022-11-13T09:42:13;1.33;;;0.90;;
40737;SDS011;54759;48.094;-1.628;2022-11-13T09:45:31;1.00;;;0.88;;
40737;SDS011;54759;48.094;-1.628;2022-11-13T09:48:53;1.40;;;1.15;;
40737;SDS011;54759;48.094;-1.628;2022-11-13T09:52:13;1.30;;;1.20;;
40737;SDS011;54759;48.094;-1.628;2022-11-13T09:55:33;1.77;;;1.52;;
40737;SDS011;54759;48.094;-1.628;2022-11-13T09:59:06;1.75;;;1.48;;
40737;SDS011;54759;48.094;-1.628;2022-11-13T10:02:36;1.58;;;1.30;;
40737;SDS011;54759;48.094;-1.628;2022-11-13T10:06:03;2.20;;;1.75;;
40737;SDS011;54759;48.094;-1.628;2022-11-13T10:09:34;1.60;;;1.50;;
40737;SDS011;54759;48.094;-1.628;2022-11-13T10:12:53;1.95;;;1.73;;
40737;SDS011;54759;48.094;-1.628;2022-11-13T10:16:14;1.92;;;1.73;;
40737;SDS011;54759;48.094;-1.628;2022-11-13T10:19:44;1.48;;;1.30;;
40737;SDS011;54759;48.094;-1.628;2022-11-13T10:23:12;1.33;;;1.23;;
40737;SDS011;54759;48.094;-1.628;2022-11-13T10:26:31;1.55;;;1.45;;
40737;SDS011;54759;48.094;-1.628;2022-11-13T10:29:52;1.67;;;1.38;;
40737;SDS011;54759;48.094;-1.628;2022-11-13T10:33:13;1.30;;;1.20;;
40737;SDS011;54759;48.094;-1.628;2022-11-13T10:36:33;1.30;;;1.20;;
40737;SDS011;54759;48.094;-1.628;2022-11-13T10:39:51;1.50;;;1.35;;
40737;SDS011;54759;48.094;-1.628;2022-11-13T10:43:12;1.30;;;1.20;;
40737;SDS011;54759;48.094;-1.628;2022-11-13T10:46:32;1.30;;;1.20;;
40737;SDS011;54759;48.094;-1.628;2022-11-13T10:49:53;1.35;;;1.25;;
40737;SDS011;54759;48.094;-1.628;2022-11-13T10:53:12;1.45;;;1.30;;
40737;SDS011;54759;48.094;-1.628;2022-11-13T10:56:32;1.30;;;1.20;;
40737;SDS011;54759;48.094;-1.628;2022-11-13T10:59:51;1.20;;;1.10;;
40737;SDS011;54759;48.094;-1.628;2022-11-13T11:03:13;1.23;;;1.13;;
40737;SDS011;54759;48.094;-1.628;2022-11-13T11:06:32;1.30;;;1.20;;
40737;SDS011;54759;48.094;-1.628;2022-11-13T11:13:41;1.30;;;1.20;;
40737;SDS011;54759;48.094;-1.628;2022-11-13T11:17:01;1.20;;;1.10;;
40737;SDS011;54759;48.094;-1.628;2022-11-13T11:20:24;1.20;;;1.02;;
40737;SDS011;54759;48.094;-1.628;2022-11-13T11:23:53;1.70;;;1.30;;
40737;SDS011;54759;48.094;-1.628;2022-11-13T11:27:12;1.17;;;1.02;;
40737;SDS011;54759;48.094;-1.628;2022-11-13T11:30:33;1.25;;;1.15;;
40737;SDS011;54759;48.094;-1.628;2022-11-13T11:33:52;0.90;;;0.90;;
40737;SDS011;54759;48.094;-1.628;2022-11-13T11:37:13;1.08;;;0.95;;
40737;SDS011;54759;48.094;-1.628;2022-11-13T11:40:32;1.17;;;1.08;;
40737;SDS011;54759;48.094;-1.628;2022-11-13T11:43:52;1.33;;;1.23;;
40737;SDS011;54759;48.094;-1.628;2022-11-13T11:47:12;1.20;;;1.10;;
40737;SDS011;54759;48.094;-1.628;2022-11-13T11:50:35;1.33;;;1.23;;
40737;SDS011;54759;48.094;-1.628;2022-11-13T11:53:56;1.00;;;0.90;;
40737;SDS011;54759;48.094;-1.628;2022-11-13T11:57:33;1.02;;;0.93;;
40737;SDS011;54759;48.094;-1.628;2022-11-13T12:01:03;1.13;;;1.00;;
40737;SDS011;54759;48.094;-1.628;2022-11-13T12:04:34;1.20;;;1.00;;
40737;SDS011;54759;48.094;-1.628;2022-11-13T12:08:06;1.10;;;1.00;;
40737;SDS011;54759;48.094;-1.628;2022-11-13T12:11:32;1.08;;;0.98;;
40737;SDS011;54759;48.094;-1.628;2022-11-13T12:14:55;0.98;;;0.90;;
40737;SDS011;54759;48.094;-1.628;2022-11-13T12:18:23;1.20;;;1.10;;
40737;SDS011;54759;48.094;-1.628;2022-11-13T12:21:43;1.02;;;0.93;;
40737;SDS011;54759;48.094;-1.628;2022-11-13T12:25:07;1.35;;;1.23;;
40737;SDS011;54759;48.094;-1.628;2022-11-13T12:28:34;1.73;;;1.25;;
40737;SDS011;54759;48.094;-1.628;2022-11-13T12:32:05;0.98;;;0.88;;
40737;SDS011;54759;48.094;-1.628;2022-11-13T12:35:31;1.23;;;1.13;;
40737;SDS011;54759;48.094;-1.628;2022-11-13T12:38:53;0.95;;;0.90;;
40737;SDS011;54759;48.094;-1.628;2022-11-13T12:42:24;1.02;;;0.93;;
40737;SDS011;54759;48.094;-1.628;2022-11-13T12:45:47;1.20;;;1.10;;
40737;SDS011;54759;48.094;-1.628;2022-11-13T12:49:02;0.77;;;0.77;;
40737;SDS011;54759;48.094;-1.628;2022-11-13T12:52:31;1.30;;;1.00;;
40737;SDS011;54759;48.094;-1.628;2022-11-13T12:55:53;1.20;;;1.10;;
40737;SDS011;54759;48.094;-1.628;2022-11-13T12:59:24;1.23;;;1.00;;
40737;SDS011;54759;48.094;-1.628;2022-11-13T13:02:56;1.05;;;0.98;;
40737;SDS011;54759;48.094;-1.628;2022-11-13T13:06:28;0.80;;;0.80;;
40737;SDS011;54759;48.094;-1.628;2022-11-13T13:10:04;1.05;;;0.95;;
40737;SDS011;54759;48.094;-1.628;2022-11-13T13:13:34;0.80;;;0.80;;
40737;SDS011;54759;48.094;-1.628;2022-11-13T13:17:02;1.48;;;1.25;;
40737;SDS011;54759;48.094;-1.628;2022-11-13T13:20:28;1.30;;;1.05;;
40737;SDS011;54759;48.094;-1.628;2022-11-13T13:23:51;1.10;;;1.00;;
40737;SDS011;54759;48.094;-1.628;2022-11-13T13:27:19;1.20;;;1.10;;
40737;SDS011;54759;48.094;-1.628;2022-11-13T13:30:47;1.27;;;1.10;;
40737;SDS011;54759;48.094;-1.628;2022-11-13T13:34:15;1.17;;;0.93;;
40737;SDS011;54759;48.094;-1.628;2022-11-13T13:37:45;1.02;;;0.90;;
40737;SDS011;54759;48.094;-1.628;2022-11-13T13:41:14;1.27;;;1.17;;
40737;SDS011;54759;48.094;-1.628;2022-11-13T13:44:36;1.52;;;1.40;;
40737;SDS011;54759;48.094;-1.628;2022-11-13T13:48:01;1.20;;;1.10;;
40737;SDS011;54759;48.094;-1.628;2022-11-13T13:51:24;1.50;;;1.17;;
40737;SDS011;54759;48.094;-1.628;2022-11-13T13:54:42;1.10;;;1.00;;
40737;SDS011;54759;48.094;-1.628;2022-11-13T13:58:02;1.15;;;1.05;;
40737;SDS011;54759;48.094;-1.628;2022-11-13T14:01:25;1.17;;;1.08;;
40737;SDS011;54759;48.094;-1.628;2022-11-13T14:04:42;1.05;;;0.95;;
40737;SDS011;54759;48.094;-1.628;2022-11-13T14:08:01;1.10;;;1.00;;
40737;SDS011;54759;48.094;-1.628;2022-11-13T14:11:22;1.30;;;1.10;;
40737;SDS011;54759;48.094;-1.628;2022-11-13T14:14:41;1.10;;;1.00;;
40737;SDS011;54759;48.094;-1.628;2022-11-13T14:18:03;1.30;;;1.20;;
40737;SDS011;54759;48.094;-1.628;2022-11-13T14:21:21;1.20;;;1.10;;
40737;SDS011;54759;48.094;-1.628;2022-11-13T14:24:43;0.80;;;0.73;;
40737;SDS011;54759;48.094;-1.628;2022-11-13T14:28:02;1.30;;;1.02;;
40737;SDS011;54759;48.094;-1.628;2022-11-13T14:31:24;1.13;;;0.93;;
40737;SDS011;54759;48.094;-1.628;2022-11-13T14:34:42;0.93;;;0.73;;
40737;SDS011;54759;48.094;-1.628;2022-11-13T14:38:02;0.90;;;0.80;;
40737;SDS011;54759;48.094;-1.628;2022-11-13T14:41:22;1.30;;;1.20;;
40737;SDS011;54759;48.094;-1.628;2022-11-13T14:44:42;1.30;;;1.20;;
40737;SDS011;54759;48.094;-1.628;2022-11-13T14:48:02;1.20;;;1.10;;
40737;SDS011;54759;48.094;-1.628;2022-11-13T14:51:32;0.80;;;0.80;;
40737;SDS011;54759;48.094;-1.628;2022-11-13T14:55:00;1.08;;;0.90;;
40737;SDS011;54759;48.094;-1.628;2022-11-13T14:58:32;1.00;;;0.90;;
40737;SDS011;54759;48.094;-1.628;2022-11-13T15:01:53;1.38;;;1.08;;
40737;SDS011;54759;48.094;-1.628;2022-11-13T15:05:11;1.08;;;0.98;;
40737;SDS011;54759;48.094;-1.628;2022-11-13T15:08:33;0.98;;;0.90;;
40737;SDS011;54759;48.094;-1.628;2022-11-13T15:11:51;1.00;;;1.00;;
40737;SDS011;54759;48.094;-1.628;2022-11-13T15:15:12;1.00;;;0.80;;
40737;SDS011;54759;48.094;-1.628;2022-11-13T15:18:32;0.85;;;0.75;;
40737;SDS011;54759;48.094;-1.628;2022-11-13T15:21:51;1.27;;;1.17;;
40737;SDS011;54759;48.094;-1.628;2022-11-13T15:25:32;1.15;;;1.05;;
40737;SDS011;54759;48.094;-1.628;2022-11-13T15:28:51;0.82;;;0.82;;
40737;SDS011;54759;48.094;-1.628;2022-11-13T15:32:12;1.13;;;1.00;;
40737;SDS011;54759;48.094;-1.628;2022-11-13T15:35:32;0.90;;;0.90;;
40737;SDS011;54759;48.094;-1.628;2022-11-13T15:38:52;0.93;;;0.85;;
40737;SDS011;54759;48.094;-1.628;2022-11-13T15:42:12;1.10;;;1.00;;
40737;SDS011;54759;48.094;-1.628;2022-11-13T15:45:31;0.93;;;0.93;;
40737;SDS011;54759;48.094;-1.628;2022-11-13T15:48:51;1.20;;;1.10;;
40737;SDS011;54759;48.094;-1.628;2022-11-13T15:52:12;1.25;;;1.15;;
40737;SDS011;54759;48.094;-1.628;2022-11-13T15:55:31;1.23;;;1.02;;
40737;SDS011;54759;48.094;-1.628;2022-11-13T15:58:51;1.00;;;0.90;;
40737;SDS011;54759;48.094;-1.628;2022-11-13T16:02:11;1.20;;;0.90;;
40737;SDS011;54759;48.094;-1.628;2022-11-13T16:05:31;1.27;;;1.17;;
40737;SDS011;54759;48.094;-1.628;2022-11-13T16:08:52;1.27;;;1.17;;
40737;SDS011;54759;48.094;-1.628;2022-11-13T16:12:11;1.00;;;0.90;;
40737;SDS011;54759;48.094;-1.628;2022-11-13T16:15:32;1.30;;;1.20;;
40737;SDS011;54759;48.094;-1.628;2022-11-13T16:18:52;1.10;;;1.00;;
40737;SDS011;54759;48.094;-1.628;2022-11-13T16:22:15;1.40;;;1.20;;
40737;SDS011;54759;48.094;-1.628;2022-11-13T16:25:32;1.58;;;1.35;;
40737;SDS011;54759;48.094;-1.628;2022-11-13T16:28:52;1.30;;;1.20;;
40737;SDS011;54759;48.094;-1.628;2022-11-13T16:32:31;1.55;;;1.42;;
40737;SDS011;54759;48.094;-1.628;2022-11-13T16:35:51;1.48;;;1.30;;
40737;SDS011;54759;48.094;-1.628;2022-11-13T16:39:13;1.45;;;1.30;;
40737;SDS011;54759;48.094;-1.628;2022-11-13T16:42:32;2.25;;;1.35;;
40737;SDS011;54759;48.094;-1.628;2022-11-13T16:45:51;1.58;;;1.48;;
40737;SDS011;54759;48.094;-1.628;2022-11-13T16:49:12;1.90;;;1.50;;
40737;SDS011;54759;48.094;-1.628;2022-11-13T16:52:32;2.17;;;1.50;;
40737;SDS011;54759;48.094;-1.628;2022-11-13T16:55:51;3.42;;;2.25;;
40737;SDS011;54759;48.094;-1.628;2022-11-13T16:59:12;3.15;;;2.55;;
40737;SDS011;54759;48.094;-1.628;2022-11-13T17:02:31;2.58;;;2.22;;
40737;SDS011;54759;48.094;-1.628;2022-11-13T17:05:51;3.10;;;2.33;;
40737;SDS011;54759;48.094;-1.628;2022-11-13T17:09:11;3.05;;;2.25;;
40737;SDS011;54759;48.094;-1.628;2022-11-13T17:12:31;3.00;;;2.47;;
40737;SDS011;54759;48.094;-1.628;2022-11-13T17:15:52;3.28;;;2.50;;
40737;SDS011;54759;48.094;-1.628;2022-11-13T17:19:12;2.10;;;1.90;;
40737;SDS011;54759;48.094;-1.628;2022-11-13T17:22:31;2.40;;;1.80;;
40737;SDS011;54759;48.094;-1.628;2022-11-13T17:25:52;2.35;;;2.15;;
40737;SDS011;54759;48.094;-1.628;2022-11-13T17:29:11;1.77;;;1.55;;
40737;SDS011;54759;48.094;-1.628;2022-11-13T17:32:32;1.40;;;1.30;;
40737;SDS011;54759;48.094;-1.628;2022-11-13T17:35:52;2.08;;;1.50;;
40737;SDS011;54759;48.094;-1.628;2022-11-13T17:39:11;1.50;;;1.40;;
40737;SDS011;54759;48.094;-1.628;2022-11-13T17:42:31;1.80;;;1.52;;
40737;SDS011;54759;48.094;-1.628;2022-11-13T17:45:51;1.83;;;1.50;;
40737;SDS011;54759;48.094;-1.628;2022-11-13T17:49:12;1.38;;;1.25;;
40737;SDS011;54759;48.094;-1.628;2022-11-13T17:52:31;1.67;;;1.58;;
40737;SDS011;54759;48.094;-1.628;2022-11-13T17:55:52;1.80;;;1.60;;
40737;SDS011;54759;48.094;-1.628;2022-11-13T17:59:11;1.60;;;1.50;;
40737;SDS011;54759;48.094;-1.628;2022-11-13T18:02:31;1.65;;;1.48;;
40737;SDS011;54759;48.094;-1.628;2022-11-13T18:05:52;1.70;;;1.60;;
40737;SDS011;54759;48.094;-1.628;2022-11-13T18:09:11;1.80;;;1.67;;
40737;SDS011;54759;48.094;-1.628;2022-11-13T18:12:31;1.48;;;1.38;;
40737;SDS011;54759;48.094;-1.628;2022-11-13T18:15:51;2.38;;;1.67;;
40737;SDS011;54759;48.094;-1.628;2022-11-13T18:19:11;1.48;;;1.30;;
40737;SDS011;54759;48.094;-1.628;2022-11-13T18:22:32;1.95;;;1.70;;
40737;SDS011;54759;48.094;-1.628;2022-11-13T18:25:51;1.88;;;1.65;;
40737;SDS011;54759;48.094;-1.628;2022-11-13T18:29:11;1.90;;;1.70;;
40737;SDS011;54759;48.094;-1.628;2022-11-13T18:32:31;1.63;;;1.52;;
40737;SDS011;54759;48.094;-1.628;2022-11-13T18:35:53;2.10;;;1.90;;
40737;SDS011;54759;48.094;-1.628;2022-11-13T18:39:12;1.85;;;1.65;;
40737;SDS011;54759;48.094;-1.628;2022-11-13T18:42:31;2.00;;;1.80;;
40737;SDS011;54759;48.094;-1.628;2022-11-13T18:45:55;1.70;;;1.58;;
40737;SDS011;54759;48.094;-1.628;2022-11-13T18:49:11;1.95;;;1.73;;
40737;SDS011;54759;48.094;-1.628;2022-11-13T18:52:31;1.60;;;1.50;;
40737;SDS011;54759;48.094;-1.628;2022-11-13T18:55:52;1.58;;;1.48;;
40737;SDS011;54759;48.094;-1.628;2022-11-13T18:59:11;1.75;;;1.65;;
40737;SDS011;54759;48.094;-1.628;2022-11-13T19:02:31;1.55;;;1.45;;
40737;SDS011;54759;48.094;-1.628;2022-11-13T19:05:51;1.85;;;1.65;;
40737;SDS011;54759;48.094;-1.628;2022-11-13T19:09:12;1.60;;;1.50;;
40737;SDS011;54759;48.094;-1.628;2022-11-13T19:12:32;1.50;;;1.40;;
40737;SDS011;54759;48.094;-1.628;2022-11-13T19:15:51;2.42;;;1.65;;
40737;SDS011;54759;48.094;-1.628;2022-11-13T19:19:13;1.60;;;1.50;;
40737;SDS011;54759;48.094;-1.628;2022-11-13T19:22:31;1.67;;;1.58;;
40737;SDS011;54759;48.094;-1.628;2022-11-13T19:25:51;1.30;;;1.17;;
40737;SDS011;54759;48.094;-1.628;2022-11-13T19:29:12;1.40;;;1.30;;
40737;SDS011;54759;48.094;-1.628;2022-11-13T19:32:31;1.40;;;1.30;;
40737;SDS011;54759;48.094;-1.628;2022-11-13T19:35:52;1.02;;;1.00;;
40737;SDS011;54759;48.094;-1.628;2022-11-13T19:39:11;1.20;;;1.10;;
40737;SDS011;54759;48.094;-1.628;2022-11-13T19:42:31;1.30;;;1.13;;
40737;SDS011;54759;48.094;-1.628;2022-11-13T19:45:52;1.20;;;1.10;;
40737;SDS011;54759;48.094;-1.628;2022-11-13T19:49:11;1.38;;;1.25;;
40737;SDS011;54759;48.094;-1.628;2022-11-13T19:52:31;1.40;;;1.23;;
40737;SDS011;54759;48.094;-1.628;2022-11-13T19:55:52;1.23;;;1.10;;